createdAt,value
2023-05-03T00:00:12.420Z,2.63
2023-05-03T00:02:40.489Z,2.70
2023-05-03T00:05:12.769Z,3.17
2023-05-03T00:07:42.253Z,3.13
2023-05-03T00:10:10.490Z,3.58
2023-05-03T00:12:41.200Z,3.17
2023-05-03T00:15:09.131Z,2.95
2023-05-03T00:17:36.988Z,2.80
2023-05-03T00:20:04.875Z,2.55
2023-05-03T00:22:32.354Z,2.75
2023-05-03T00:25:02.308Z,3.13
2023-05-03T00:27:29.117Z,2.60
2023-05-03T00:29:55.912Z,3.42
2023-05-03T00:32:23.178Z,2.92
2023-05-03T00:34:57.084Z,4.88
2023-05-03T00:37:25.128Z,5.35
2023-05-03T00:39:52.201Z,4.72
2023-05-03T00:42:19.039Z,5.07
2023-05-03T00:44:45.672Z,4.60
2023-05-03T00:47:12.969Z,4.05
2023-05-03T00:49:40.166Z,3.03
2023-05-03T00:52:07.128Z,3.33
2023-05-03T00:54:35.410Z,3.03
2023-05-03T00:57:04.421Z,3.75
2023-05-03T00:59:32.776Z,3.40
2023-05-03T01:01:59.682Z,3.67
2023-05-03T01:04:27.068Z,3.25
2023-05-03T01:07:15.424Z,3.15
2023-05-03T01:09:55.905Z,3.17
2023-05-03T01:13:07.705Z,3.38
2023-05-03T01:15:48.909Z,3.30
2023-05-03T01:18:20.307Z,3.55
2023-05-03T01:20:49.408Z,3.10
2023-05-03T01:23:51.933Z,3.55
2023-05-03T01:26:22.692Z,2.97
2023-05-03T01:28:49.454Z,3.00
2023-05-03T01:31:29.642Z,3.50
2023-05-03T01:36:38.989Z,3.25
2023-05-03T01:39:10.607Z,3.25
2023-05-03T01:41:40.609Z,3.75
2023-05-03T01:44:09.019Z,3.80
2023-05-03T01:46:45.389Z,3.28
2023-05-03T01:49:12.619Z,2.90
2023-05-03T01:51:39.606Z,3.20
2023-05-03T01:54:06.695Z,3.13
2023-05-03T01:56:36.132Z,3.45
2023-05-03T01:59:03.674Z,3.10
2023-05-03T02:01:30.779Z,3.80
2023-05-03T02:03:57.520Z,3.17
2023-05-03T02:06:27.308Z,3.85
2023-05-03T02:08:54.692Z,3.50
2023-05-03T02:11:21.741Z,3.55
2023-05-03T02:13:49.586Z,3.67
2023-05-03T02:16:17.742Z,3.25
2023-05-03T02:18:44.641Z,3.63
2023-05-03T02:21:11.493Z,3.80
2023-05-03T02:23:38.229Z,3.35
2023-05-03T02:26:05.435Z,3.25
2023-05-03T02:28:32.025Z,3.10
2023-05-03T02:30:58.768Z,3.88
2023-05-03T02:33:25.398Z,3.30
2023-05-03T02:35:52.025Z,3.58
2023-05-03T02:38:18.686Z,3.83
2023-05-03T02:40:45.653Z,3.55
2023-05-03T02:43:12.279Z,3.58
2023-05-03T02:45:38.936Z,4.03
2023-05-03T02:48:06.221Z,4.07
2023-05-03T02:50:32.904Z,3.63
2023-05-03T02:52:59.669Z,4.15
2023-05-03T02:55:26.714Z,3.53
2023-05-03T02:57:53.370Z,4.10
2023-05-03T03:00:20.209Z,4.50
2023-05-03T03:02:46.992Z,3.80
2023-05-03T03:05:14.227Z,4.07
2023-05-03T03:07:41.071Z,4.03
2023-05-03T03:10:08.410Z,3.88
2023-05-03T03:12:38.490Z,4.10
2023-05-03T03:15:05.843Z,4.32
2023-05-03T03:17:32.695Z,3.75
2023-05-03T03:19:59.429Z,3.80
2023-05-03T03:22:26.123Z,4.55
2023-05-03T03:24:53.259Z,4.50
2023-05-03T03:27:21.603Z,3.92
2023-05-03T03:29:48.425Z,4.60
2023-05-03T03:32:15.489Z,4.45
2023-05-03T03:34:42.182Z,4.68
2023-05-03T03:37:08.854Z,4.75
2023-05-03T03:39:35.463Z,3.85
2023-05-03T03:42:03.058Z,4.20
2023-05-03T03:44:29.743Z,4.32
2023-05-03T03:46:56.539Z,4.45
2023-05-03T03:49:23.267Z,4.60
2023-05-03T03:51:49.877Z,4.22
2023-05-03T03:54:16.696Z,4.75
2023-05-03T03:56:43.465Z,4.60
2023-05-03T03:59:10.088Z,4.47
2023-05-03T04:01:36.853Z,4.35
2023-05-03T04:04:04.850Z,4.43
2023-05-03T04:06:33.042Z,4.78
2023-05-03T04:08:59.736Z,4.50
2023-05-03T04:11:26.460Z,4.90
2023-05-03T04:13:53.107Z,5.18
2023-05-03T04:16:19.988Z,4.13
2023-05-03T04:18:47.015Z,4.68
2023-05-03T04:21:13.752Z,4.70
2023-05-03T04:23:40.476Z,4.32
2023-05-03T04:26:12.140Z,3.83
2023-05-03T04:28:44.968Z,4.53
2023-05-03T04:31:12.892Z,3.90
2023-05-03T04:33:39.566Z,4.32
2023-05-03T04:36:07.501Z,3.88
2023-05-03T04:38:34.295Z,4.22
2023-05-03T04:41:01.115Z,4.07
2023-05-03T04:43:27.831Z,4.30
2023-05-03T04:45:54.621Z,3.92
2023-05-03T04:48:21.318Z,3.65
2023-05-03T04:50:48.045Z,4.03
2023-05-03T04:53:15.645Z,3.55
2023-05-03T04:55:42.276Z,3.72
2023-05-03T04:58:08.892Z,3.78
2023-05-03T05:00:36.182Z,3.75
2023-05-03T05:03:02.896Z,3.45
2023-05-03T05:05:29.670Z,4.45
2023-05-03T05:07:56.437Z,3.95
2023-05-03T05:10:23.076Z,3.50
2023-05-03T05:12:49.723Z,4.28
2023-05-03T05:15:16.554Z,4.22
2023-05-03T05:17:43.711Z,3.47
2023-05-03T05:20:12.370Z,3.58
2023-05-03T05:22:39.583Z,3.20
2023-05-03T05:25:07.452Z,3.30
2023-05-03T05:27:36.957Z,3.75
2023-05-03T05:30:04.589Z,3.60
2023-05-03T05:32:31.673Z,3.55
2023-05-03T05:34:58.313Z,4.40
2023-05-03T05:37:26.463Z,2.85
2023-05-03T05:39:53.920Z,3.13
2023-05-03T05:42:20.886Z,3.50
2023-05-03T05:44:47.589Z,2.90
2023-05-03T05:47:14.394Z,4.18
2023-05-03T05:49:41.086Z,3.40
2023-05-03T05:52:07.806Z,3.63
2023-05-03T05:54:34.405Z,2.58
2023-05-03T05:57:01.531Z,3.28
2023-05-03T05:59:29.657Z,3.17
2023-05-03T06:01:57.277Z,3.10
2023-05-03T06:04:23.928Z,3.08
2023-05-03T06:06:50.804Z,3.03
2023-05-03T06:11:50.248Z,2.75
2023-05-03T06:14:17.380Z,3.25
2023-05-03T06:16:44.408Z,3.15
2023-05-03T06:19:11.189Z,3.13
2023-05-03T06:21:37.817Z,3.28
2023-05-03T06:24:04.701Z,3.15
2023-05-03T06:26:31.428Z,3.70
2023-05-03T06:28:58.235Z,3.45
2023-05-03T06:31:24.874Z,2.80
2023-05-03T06:33:51.552Z,3.08
2023-05-03T06:36:18.235Z,3.03
2023-05-03T06:38:45.128Z,2.83
2023-05-03T06:41:11.748Z,3.00
2023-05-03T06:43:38.355Z,3.25
2023-05-03T06:46:05.112Z,2.78
2023-05-03T06:48:31.873Z,2.47
2023-05-03T06:50:58.519Z,2.33
2023-05-03T06:53:25.338Z,3.22
2023-05-03T06:55:52.057Z,2.60
2023-05-03T06:58:18.670Z,3.20
2023-05-03T07:00:46.740Z,2.70
2023-05-03T07:03:13.514Z,3.05
2023-05-03T07:05:40.600Z,2.80
2023-05-03T07:08:07.390Z,2.95
2023-05-03T07:10:34.541Z,2.83
2023-05-03T07:13:01.295Z,2.90
2023-05-03T07:15:28.162Z,2.58
2023-05-03T07:17:54.857Z,2.45
2023-05-03T07:20:21.836Z,2.63
2023-05-03T07:22:48.624Z,2.88
2023-05-03T07:25:17.742Z,2.80
2023-05-03T07:27:44.782Z,2.53
2023-05-03T07:30:11.724Z,2.17
2023-05-03T07:32:38.436Z,2.40
2023-05-03T07:35:07.338Z,2.67
2023-05-03T07:37:34.102Z,2.55
2023-05-03T07:40:00.993Z,2.00
2023-05-03T07:42:27.697Z,2.88
2023-05-03T07:44:55.369Z,2.97
2023-05-03T07:47:22.417Z,2.92
2023-05-03T07:49:50.923Z,3.10
2023-05-03T07:52:18.045Z,3.40
2023-05-03T07:54:45.973Z,3.17
2023-05-03T07:57:14.647Z,3.08
2023-05-03T07:59:41.384Z,2.95
2023-05-03T08:02:08.303Z,3.85
2023-05-03T08:04:35.792Z,2.72
2023-05-03T08:07:04.139Z,2.70
2023-05-03T08:09:31.075Z,3.28
2023-05-03T08:11:57.733Z,2.83
2023-05-03T08:14:24.507Z,2.47
2023-05-03T08:16:51.491Z,3.38
2023-05-03T08:19:18.209Z,2.63
2023-05-03T08:21:46.890Z,3.13
2023-05-03T08:24:16.559Z,2.75
2023-05-03T08:26:46.257Z,3.13
2023-05-03T08:29:12.894Z,3.28
2023-05-03T08:31:39.770Z,3.05
2023-05-03T08:34:07.824Z,3.00
2023-05-03T08:36:35.800Z,2.92
2023-05-03T08:39:06.350Z,2.88
2023-05-03T08:41:33.612Z,2.75
2023-05-03T08:44:01.595Z,3.20
2023-05-03T08:46:29.253Z,3.13
2023-05-03T08:48:56.626Z,3.03
2023-05-03T08:51:24.766Z,3.65
2023-05-03T08:53:52.675Z,3.15
2023-05-03T08:56:29.066Z,3.03
2023-05-03T08:58:56.343Z,2.92
2023-05-03T09:01:23.127Z,3.28
2023-05-03T09:03:51.869Z,3.17
2023-05-03T09:06:28.580Z,3.60
2023-05-03T09:08:55.626Z,3.17
2023-05-03T09:11:30.864Z,2.58
2023-05-03T09:14:12.652Z,4.00
2023-05-03T09:16:44.621Z,2.88
2023-05-03T09:19:13.202Z,2.92
2023-05-03T09:21:42.030Z,3.45
2023-05-03T09:24:15.493Z,3.28
2023-05-03T09:26:42.772Z,3.35
2023-05-03T09:29:09.764Z,3.22
2023-05-03T09:31:37.441Z,3.10
2023-05-03T09:34:22.047Z,3.38
2023-05-03T09:36:48.834Z,3.33
2023-05-03T09:39:20.281Z,3.50
2023-05-03T09:41:47.377Z,2.97
2023-05-03T09:44:14.031Z,3.13
2023-05-03T09:47:00.765Z,3.58
2023-05-03T09:49:27.402Z,3.13
2023-05-03T09:51:55.016Z,3.35
2023-05-03T09:54:25.649Z,3.40
2023-05-03T09:56:53.897Z,3.47
2023-05-03T09:59:20.917Z,2.92
2023-05-03T10:01:48.996Z,3.60
2023-05-03T10:07:18.075Z,3.83
2023-05-03T10:09:47.244Z,3.00
2023-05-03T10:12:17.582Z,3.45
2023-05-03T10:14:47.001Z,3.13
2023-05-03T10:17:43.663Z,3.55
2023-05-03T10:20:23.188Z,3.03
2023-05-03T10:23:05.328Z,3.33
2023-05-03T10:25:33.183Z,3.72
2023-05-03T10:28:03.813Z,3.20
2023-05-03T10:30:35.356Z,3.08
2023-05-03T10:33:14.160Z,3.70
2023-05-03T10:35:43.561Z,3.28
2023-05-03T10:38:36.815Z,3.47
2023-05-03T10:41:03.934Z,3.58
2023-05-03T10:43:30.886Z,2.92
2023-05-03T10:46:01.913Z,3.05
2023-05-03T10:48:29.481Z,3.00
2023-05-03T10:50:57.305Z,3.50
2023-05-03T10:53:43.626Z,3.25
2023-05-03T10:56:11.972Z,3.35
2023-05-03T10:58:49.150Z,3.22
2023-05-03T11:01:17.528Z,2.97
2023-05-03T11:03:47.079Z,3.65
2023-05-03T11:06:34.833Z,3.10
2023-05-03T11:09:04.068Z,2.50
2023-05-03T11:11:31.542Z,3.47
2023-05-03T11:13:58.627Z,2.97
2023-05-03T11:16:26.713Z,3.03
2023-05-03T11:18:54.150Z,3.20
2023-05-03T11:21:21.197Z,3.53
2023-05-03T11:23:47.999Z,2.97
2023-05-03T11:26:14.964Z,2.75
2023-05-03T11:28:42.900Z,3.63
2023-05-03T11:31:10.766Z,2.78
2023-05-03T11:33:39.571Z,3.30
2023-05-03T11:36:08.357Z,3.13
2023-05-03T11:38:36.410Z,3.22
2023-05-03T11:41:13.190Z,3.45
2023-05-03T11:43:52.865Z,3.65
2023-05-03T11:46:24.822Z,3.47
2023-05-03T11:48:52.184Z,3.42
2023-05-03T11:51:25.720Z,3.03
2023-05-03T11:53:52.466Z,3.60
2023-05-03T11:56:21.038Z,3.00
2023-05-03T11:58:57.201Z,2.95
2023-05-03T12:01:26.409Z,3.60
2023-05-03T12:04:01.212Z,3.15
2023-05-03T12:06:32.214Z,3.28
2023-05-03T12:09:01.404Z,3.28
2023-05-03T12:11:31.396Z,2.70
2023-05-03T12:14:03.441Z,2.47
2023-05-03T12:16:52.900Z,3.22
2023-05-03T12:19:33.418Z,2.72
2023-05-03T12:22:17.814Z,3.33
2023-05-03T12:24:49.770Z,2.85
2023-05-03T12:27:19.359Z,3.05
2023-05-03T12:29:47.608Z,3.30
2023-05-03T12:32:14.974Z,4.00
2023-05-03T12:34:42.718Z,3.40
2023-05-03T12:37:11.841Z,3.30
2023-05-03T12:39:40.061Z,3.70
2023-05-03T12:42:09.331Z,4.13
2023-05-03T12:44:42.658Z,4.10
2023-05-03T12:47:10.547Z,3.55
2023-05-03T12:49:39.123Z,3.15
2023-05-03T12:52:35.544Z,3.58
2023-05-03T12:54:55.661Z,2.95
2023-05-03T12:57:23.964Z,3.08
2023-05-03T12:59:55.039Z,3.45
2023-05-03T13:05:00.486Z,3.95
2023-05-03T13:07:31.763Z,4.57
2023-05-03T13:12:30.665Z,4.40
2023-05-03T13:14:58.243Z,3.33
2023-05-03T13:17:25.367Z,3.72
2023-05-03T13:19:52.916Z,3.42
2023-05-03T13:22:19.610Z,2.88
2023-05-03T13:24:48.029Z,3.20
2023-05-03T13:27:16.065Z,3.63
2023-05-03T13:29:42.932Z,3.72
2023-05-03T13:32:12.218Z,3.78
2023-05-03T13:34:39.000Z,3.28
2023-05-03T13:37:05.899Z,3.42
2023-05-03T13:39:32.702Z,3.15
2023-05-03T13:41:59.416Z,2.33
2023-05-03T13:44:26.319Z,3.30
2023-05-03T13:46:53.535Z,3.53
2023-05-03T13:49:20.729Z,2.38
2023-05-03T13:51:47.737Z,3.38
2023-05-03T13:54:14.478Z,3.20
2023-05-03T13:56:42.942Z,3.10
2023-05-03T13:59:12.625Z,2.72
2023-05-03T14:01:40.370Z,2.08
2023-05-03T14:04:07.219Z,3.10
2023-05-03T14:06:34.296Z,2.58
2023-05-03T14:09:01.966Z,2.30
2023-05-03T14:11:30.626Z,2.00
2023-05-03T14:13:58.576Z,2.33
2023-05-03T14:16:39.914Z,2.35
2023-05-03T14:19:10.483Z,2.17
2023-05-03T14:21:42.152Z,1.70
2023-05-03T14:24:09.335Z,2.58
2023-05-03T14:26:37.101Z,2.15
2023-05-03T14:29:05.576Z,2.33
2023-05-03T14:31:33.760Z,2.45
2023-05-03T14:34:00.696Z,2.08
2023-05-03T14:36:33.370Z,1.80
2023-05-03T14:39:00.818Z,1.65
2023-05-03T14:41:27.479Z,1.83
2023-05-03T14:43:54.186Z,2.10
2023-05-03T14:46:20.837Z,1.50
2023-05-03T14:48:47.451Z,1.80
2023-05-03T14:51:14.967Z,1.42
2023-05-03T14:53:41.791Z,1.98
2023-05-03T14:56:08.490Z,1.80
2023-05-03T14:58:35.101Z,1.95
2023-05-03T15:01:02.461Z,2.25
2023-05-03T15:03:29.175Z,1.70
2023-05-03T15:05:55.855Z,2.17
2023-05-03T15:08:22.641Z,2.00
2023-05-03T15:10:49.340Z,1.70
2023-05-03T15:13:17.041Z,2.33
2023-05-03T15:15:44.213Z,2.30
2023-05-03T15:18:11.596Z,2.15
2023-05-03T15:20:38.880Z,2.25
2023-05-03T15:23:06.208Z,2.17
2023-05-03T15:25:33.192Z,1.75
2023-05-03T15:28:03.840Z,1.95
2023-05-03T15:30:32.685Z,2.00
2023-05-03T15:33:00.003Z,2.15
2023-05-03T15:35:27.241Z,1.60
2023-05-03T15:37:53.897Z,2.00
2023-05-03T15:40:23.689Z,1.60
2023-05-03T15:42:52.421Z,2.00
2023-05-03T15:45:19.456Z,2.05
2023-05-03T15:47:46.239Z,2.28
2023-05-03T15:50:13.330Z,1.60
2023-05-03T15:52:40.140Z,1.70
2023-05-03T15:55:09.459Z,1.95
2023-05-03T15:57:36.194Z,1.65
2023-05-03T16:00:06.472Z,2.03
2023-05-03T16:02:33.453Z,2.05
2023-05-03T16:05:00.253Z,1.98
2023-05-03T16:07:27.103Z,1.80
2023-05-03T16:09:53.742Z,1.88
2023-05-03T16:12:20.391Z,1.75
2023-05-03T16:14:47.199Z,1.90
2023-05-03T16:17:13.921Z,1.70
2023-05-03T16:19:40.596Z,2.00
2023-05-03T16:22:07.663Z,1.88
2023-05-03T16:24:34.990Z,1.80
2023-05-03T16:27:02.687Z,2.28
2023-05-03T16:29:29.424Z,1.80
2023-05-03T16:31:56.550Z,1.65
2023-05-03T16:34:23.364Z,2.05
2023-05-03T16:36:50.775Z,1.83
2023-05-03T16:39:17.975Z,1.92
2023-05-03T16:41:44.672Z,1.73
2023-05-03T16:44:11.614Z,1.65
2023-05-03T16:46:39.682Z,1.80
2023-05-03T16:49:07.219Z,1.48
2023-05-03T16:51:34.060Z,1.90
2023-05-03T16:54:03.706Z,2.15
2023-05-03T16:56:31.343Z,1.48
2023-05-03T16:58:59.255Z,1.60
2023-05-03T17:01:26.256Z,1.63
2023-05-03T17:03:53.369Z,1.35
2023-05-03T17:06:20.289Z,1.52
2023-05-03T17:08:47.073Z,1.88
2023-05-03T17:11:14.664Z,1.85
2023-05-03T17:13:42.004Z,1.75
2023-05-03T17:16:11.234Z,1.58
2023-05-03T17:18:39.136Z,1.60
2023-05-03T17:21:07.800Z,1.70
2023-05-03T17:23:38.227Z,1.73
2023-05-03T17:26:06.728Z,2.22
2023-05-03T17:28:33.421Z,1.67
2023-05-03T17:31:00.933Z,1.67
2023-05-03T17:33:27.758Z,1.98
2023-05-03T17:35:55.696Z,2.08
2023-05-03T17:38:23.121Z,1.40
2023-05-03T17:40:50.151Z,2.40
2023-05-03T17:43:17.792Z,2.10
2023-05-03T17:45:47.384Z,1.67
2023-05-03T17:48:14.603Z,2.08
2023-05-03T17:50:43.068Z,1.63
2023-05-03T17:53:09.858Z,1.98
2023-05-03T17:55:38.219Z,2.40
2023-05-03T17:58:06.340Z,2.70
2023-05-03T18:00:33.857Z,1.83
2023-05-03T18:03:01.187Z,2.40
2023-05-03T18:05:28.004Z,2.20
2023-05-03T18:07:54.689Z,1.65
2023-05-03T18:10:22.406Z,1.75
2023-05-03T18:12:49.348Z,1.90
2023-05-03T18:15:16.340Z,1.70
2023-05-03T18:17:43.391Z,1.70
2023-05-03T18:20:10.630Z,1.75
2023-05-03T18:22:40.353Z,1.92
2023-05-03T18:25:07.870Z,1.98
2023-05-03T18:27:37.617Z,2.92
2023-05-03T18:30:06.915Z,1.90
2023-05-03T18:32:34.196Z,2.15
2023-05-03T18:35:01.292Z,1.90
2023-05-03T18:37:28.455Z,2.13
2023-05-03T18:39:55.337Z,2.45
2023-05-03T18:42:22.676Z,2.67
2023-05-03T18:44:49.867Z,2.35
2023-05-03T18:47:20.636Z,2.70
2023-05-03T18:49:50.510Z,2.10
2023-05-03T18:52:17.336Z,2.10
2023-05-03T18:54:43.959Z,2.08
2023-05-03T18:57:11.676Z,2.00
2023-05-03T18:59:45.486Z,2.05
2023-05-03T19:02:15.798Z,2.20
2023-05-03T19:04:42.957Z,2.25
2023-05-03T19:07:10.499Z,2.25
2023-05-03T19:09:40.461Z,1.40
2023-05-03T19:12:10.431Z,2.20
2023-05-03T19:14:42.635Z,2.55
2023-05-03T19:17:09.291Z,2.15
2023-05-03T19:19:36.207Z,2.40
2023-05-03T19:22:03.284Z,2.00
2023-05-03T19:24:30.121Z,2.38
2023-05-03T19:26:56.784Z,2.50
2023-05-03T19:29:23.684Z,2.42
2023-05-03T19:31:50.312Z,2.60
2023-05-03T19:34:17.013Z,2.60
2023-05-03T19:36:43.652Z,2.78
2023-05-03T19:39:13.525Z,2.50
2023-05-03T19:41:40.288Z,2.70
2023-05-03T19:44:07.035Z,2.30
2023-05-03T19:46:33.949Z,2.55
2023-05-03T19:49:01.543Z,3.50
2023-05-03T19:51:28.181Z,3.53
2023-05-03T19:53:55.010Z,3.53
2023-05-03T19:56:22.093Z,3.92
2023-05-03T19:58:50.640Z,3.72
2023-05-03T20:01:17.712Z,4.22
2023-05-03T20:03:44.697Z,4.57
2023-05-03T20:06:11.687Z,4.30
2023-05-03T20:08:38.426Z,4.63
2023-05-03T20:11:05.723Z,4.00
2023-05-03T20:13:33.218Z,4.82
2023-05-03T20:16:02.872Z,4.50
2023-05-03T20:18:29.520Z,5.32
2023-05-03T20:20:56.326Z,5.13
2023-05-03T20:23:23.004Z,4.32
2023-05-03T20:25:49.717Z,4.82
2023-05-03T20:28:16.659Z,5.00
2023-05-03T20:30:43.399Z,4.80
2023-05-03T20:33:10.198Z,4.25
2023-05-03T20:35:38.166Z,4.30
2023-05-03T20:38:08.364Z,4.53
2023-05-03T20:43:02.584Z,3.92
2023-05-03T20:45:29.788Z,4.88
2023-05-03T20:47:56.644Z,4.00
2023-05-03T20:50:23.341Z,4.40
2023-05-03T20:52:50.109Z,4.38
2023-05-03T20:55:16.838Z,4.47
2023-05-03T20:57:43.680Z,5.07
2023-05-03T21:00:15.803Z,4.85
2023-05-03T21:02:43.292Z,4.07
2023-05-03T21:05:11.230Z,4.60
2023-05-03T21:07:38.624Z,4.60
2023-05-03T21:10:07.324Z,4.85
2023-05-03T21:12:34.815Z,5.38
2023-05-03T21:15:01.594Z,5.75
2023-05-03T21:17:28.565Z,6.38
2023-05-03T21:19:55.764Z,8.02
2023-05-03T21:22:22.709Z,8.95
2023-05-03T21:24:50.168Z,8.35
2023-05-03T21:27:19.275Z,6.60
2023-05-03T21:29:46.329Z,5.63
2023-05-03T21:32:13.267Z,6.18
2023-05-03T21:34:40.321Z,5.50
2023-05-03T21:37:07.352Z,5.38
2023-05-03T21:39:34.064Z,5.22
2023-05-03T21:42:00.734Z,5.15
2023-05-03T21:44:27.645Z,4.85
2023-05-03T21:46:54.339Z,5.18
2023-05-03T21:49:21.083Z,5.25
2023-05-03T21:51:47.910Z,5.10
2023-05-03T21:54:15.889Z,5.32
2023-05-03T21:56:42.618Z,4.93
2023-05-03T21:59:09.262Z,5.47
2023-05-03T22:01:36.106Z,5.50
2023-05-03T22:04:02.882Z,4.85
2023-05-03T22:06:31.179Z,5.07
2023-05-03T22:08:58.174Z,5.20
2023-05-03T22:11:24.834Z,4.50
2023-05-03T22:14:06.969Z,4.88
2023-05-03T22:16:34.873Z,5.68
2023-05-03T22:19:01.930Z,5.18
2023-05-03T22:21:28.594Z,4.95
2023-05-03T22:23:55.289Z,5.85
2023-05-03T22:26:22.424Z,5.38
2023-05-03T22:28:49.399Z,5.65
2023-05-03T22:31:16.308Z,6.03
2023-05-03T22:33:45.012Z,7.00
2023-05-03T22:36:12.443Z,9.60
2023-05-03T22:38:41.293Z,10.60
2023-05-03T22:43:35.866Z,14.07
2023-05-03T22:46:02.892Z,13.43
2023-05-03T22:48:32.118Z,12.00
2023-05-03T22:50:58.985Z,8.93
2023-05-03T22:53:26.140Z,7.65
2023-05-03T22:56:01.356Z,7.82
2023-05-03T22:58:28.801Z,6.32
2023-05-03T23:00:55.884Z,6.35
2023-05-03T23:03:22.827Z,5.55
2023-05-03T23:05:52.075Z,5.47
2023-05-03T23:08:19.068Z,5.20
2023-05-03T23:10:45.912Z,5.82
2023-05-03T23:13:12.866Z,5.07
2023-05-03T23:15:40.049Z,4.35
2023-05-03T23:18:07.219Z,4.70
2023-05-03T23:20:34.488Z,4.70
2023-05-03T23:23:01.296Z,4.20
2023-05-03T23:25:27.922Z,4.97
2023-05-03T23:27:54.535Z,5.05
2023-05-03T23:30:21.702Z,4.57
2023-05-03T23:32:49.183Z,4.85
2023-05-03T23:35:16.566Z,4.28
2023-05-03T23:37:43.214Z,4.47
2023-05-03T23:40:10.064Z,4.10
2023-05-03T23:42:39.651Z,4.63
2023-05-03T23:45:08.246Z,4.43
2023-05-03T23:47:34.921Z,4.68
2023-05-03T23:50:01.709Z,4.95
2023-05-03T23:52:28.448Z,5.20
2023-05-03T23:54:55.090Z,4.72
2023-05-03T23:57:22.181Z,4.40
2023-05-03T23:59:49.092Z,4.90
